Historyczne dane pomiarowe

Dodano dane terminowe – wersja testowa.

Dane z okresu 1951-2019

Wersja bazy: 1.34 [2019-03-16, lista zmian], aktualizacja planowana na 2019-04-15

Dane meteo z obszaru Polski uzyskane na podstawie danych udostępnionych przez Instytut Meteorologii i Gospodarki Wodnej – Państwowy Instytut Badawczy.

 

Wybierz Datę:    

       

TemperaturaWilgotnośćWiatrCiśnienieOpadyŚniegCzas trwania zjawisk
 Stacja t tx tn tng RH VA  wxwx mslp ppp RRR   cm mm wxwxwxwxwxwxwx
1994-08-14 12.3 15.7 9.4- 78.3- 5.0 2.3---- 0.0------------
1994-08-13 14.2 17.9 12.0- 87.0- 6.3 3.3---- 0.5------------
1994-08-12 14.5 18.8 11.4- 91.0- 7.7 2.3---- 12.7------------
1994-08-11 17.9 21.7 14.8- 86.3- 6.7 2.7---- 8.6------------
1994-08-10 18.1 25.2 11.6- 82.0- 2.7 1.3---- 0.2------------
1994-08-09 16.9 20.1 15.1- 94.8- 8.0 1.3---- 11.8------------
1994-08-08 19.6 26.6 14.4- 84.5- 7.3 3.3---- 0.0------------
1994-08-07 21.0 27.2 15.6- 79.5- 6.3 1.3---- 10.4------------
1994-08-06 21.5 27.5 15.3- 68.3- 3.0 2.0---- 0.1------------
1994-08-05 21.2 26.5 16.6- 74.5- 2.3 2.0---- 0.0------------
1994-08-04 19.4 24.4 15.1- 79.0- 4.3 2.3---- 0.0------------
1994-08-03 20.4 26.0 16.1- 81.5- 5.0 2.7---- 17.7------------
1994-08-02 22.8 28.4 16.1- 66.0- 3.7 1.3---- 0.0------------
1994-08-01 22.6 30.0 17.6- 64.0- 5.3 1.3---- 0.0------------
1994-07-31 24.3 30.1 16.0- 65.5- 0.7 2.7---- 0.0------------
1994-07-30 24.1 30.1 15.0- 83.3- 0.3 2.3---- 0.0------------
1994-07-29 23.6 28.9 14.2- 72.8- 0.0 1.7---- 0.0------------
1994-07-28 22.5 28.4 15.3- 79.3- 2.0 2.0---- 0.0------------
1994-07-27 22.0 28.4 16.3- 69.5- 1.3 1.7---- 0.0------------
1994-07-26 22.0 27.4 16.1- 76.8- 1.3 1.7---- 0.0------------
1994-07-25 20.5 26.8 14.1- 71.0- 4.3 1.3---- 0.0------------
1994-07-24 20.4 24.9 13.1- 62.5- 2.0 2.0---- 0.0------------
1994-07-23 19.3 23.7 12.7- 67.8- 1.3 1.3---- 0.0------------
1994-07-22 18.8 23.0 13.4- 73.0- 0.3 1.7---- 0.0------------
1994-07-21 17.2 21.2 11.8- 74.0- 0.7 1.7---- 0.0------------
1994-07-20 15.5 19.2 11.2- 83.0- 3.7 2.0---- 0.0------------
1994-07-19 17.6 20.7 13.9- 93.8- 5.3 2.3---- 0.0------------
1994-07-18 17.7 23.2 13.7- 93.0- 5.0 2.0---- 0.0------------
1994-07-17 19.1 24.5 13.1- 94.3- 4.0 1.3---- 5.4------------
1994-07-16 18.5 24.7 13.7- 91.3- 5.0 2.0---- 1.4------------
1994-07-15 16.5 23.7 10.1- 88.8- 4.7 1.7---- 0.0------------
1994-07-14 18.1 23.9 13.1- 89.5- 7.0 2.0---- 9.5------------
1994-07-13 20.0 23.7 15.5- 77.8- 3.7 2.3---- 0.0------------
1994-07-12 17.2 21.2 12.2- 85.8- 5.0 1.7---- 0.0------------
1994-07-11 14.0 19.0 10.3- 92.8- 5.3 2.0---- 0.0------------
1994-07-10 11.3 14.9 8.8- 99.3- 8.0 2.3---- 1.9------------
1994-07-09 11.4 15.2 9.8- 95.0- 8.0 2.3---- 32.8------------
1994-07-08 13.8 16.9 10.8- 84.8- 6.7 3.0---- 0.3------------
1994-07-07 15.0 21.9 10.9- 93.5- 7.7 2.3---- 6.3------------
1994-07-06 17.2 21.4 12.1- 81.5- 1.7 1.7---- 0.0------------
1994-07-05 17.5 23.6 14.9- 89.8- 7.3 1.3---- 0.3------------
1994-07-04 19.6 25.0 11.7- 83.0- 0.7 2.0---- 0.0------------
1994-07-03 17.9 23.6 8.7- 75.0- 0.7 2.0---- 0.0------------
1994-07-02 16.5 20.7 10.8- 75.5- 0.3 1.7---- 0.0------------
1994-07-01 16.7 19.6 13.1- 84.5- 4.3 1.7---- 0.0------------
1994-06-30 19.5 23.4 17.1- 91.0- 5.7 2.7---- 1.5------------
1994-06-29 22.1 27.7 14.7- 84.3- 3.0 1.3---- 0.0------------
1994-06-28 22.2 26.8 18.0- 88.3- 3.0 2.0---- 0.0------------
1994-06-27 22.1 28.4 15.3- 85.3- 5.0 2.0---- 0.0------------
1994-06-26 18.5 25.5 8.8- 86.0- 0.7 3.0---- 0.0------------
1994-06-25 15.2 20.7 5.9- 75.3- 0.0 2.0---- 0.0------------
1994-06-24 12.6 16.5 7.7- 70.8- 0.3 2.7---- 0.0------------
1994-06-23 14.2 20.2 11.5- 84.3- 5.0 3.0---- 0.0------------
1994-06-22 17.3 23.5 8.4- 81.3- 3.3 2.3---- 0.4------------
1994-06-21 13.4 17.2 8.8- 88.8- 1.7 1.7---- 0.0------------
1994-06-20 15.5 20.9 11.3- 87.8- 5.0 2.7---- 0.0------------
1994-06-19 15.6 21.9 8.4- 79.5- 5.0 2.7---- 0.0------------
1994-06-18 9.5 15.1 4.1- 85.3- 6.0 3.0---- 13.5------------
1994-06-17 7.7 11.2 5.2- 92.8- 7.3 2.0---- 0.4------------
1994-06-16 10.5 13.7 8.1- 79.0- 6.0 3.7---- 2.6------------
326.5 ms

 

Źródłem pochodzenia danych jest Instytut Meteorologii i Gospodarki Wodnej – Państwowy Instytut Badawczy. Dane Instytutu Meteorologii i Gospodarki Wodnej – Państwowego Instytutu Badawczego zostały przetworzone.

Dane źródłowe można odnaleźć na stronie https://dane.imgw.pl